sensor_id;sensor_type;location;lat;lon;timestamp;pressure;altitude;pressure_sealevel;temperature;humidity
21658;BME280;10990;48.174;9.782;2023-03-18T00:02:17;94286.44;;;6.19;100.00
21658;BME280;10990;48.174;9.782;2023-03-18T00:04:44;94268.91;;;6.20;100.00
21658;BME280;10990;48.174;9.782;2023-03-18T00:07:11;94265.63;;;6.18;100.00
21658;BME280;10990;48.174;9.782;2023-03-18T00:09:40;94275.34;;;5.99;100.00
21658;BME280;10990;48.174;9.782;2023-03-18T00:12:07;94272.63;;;5.83;100.00
21658;BME280;10990;48.174;9.782;2023-03-18T00:14:35;94234.59;;;6.13;100.00
21658;BME280;10990;48.174;9.782;2023-03-18T00:17:03;94233.72;;;6.04;100.00
21658;BME280;10990;48.174;9.782;2023-03-18T00:19:30;94222.28;;;6.05;100.00
21658;BME280;10990;48.174;9.782;2023-03-18T00:21:56;94220.97;;;6.10;100.00
21658;BME280;10990;48.174;9.782;2023-03-18T00:24:24;94223.66;;;5.92;100.00
21658;BME280;10990;48.174;9.782;2023-03-18T00:26:53;94196.53;;;6.09;100.00
21658;BME280;10990;48.174;9.782;2023-03-18T00:29:20;94195.13;;;6.31;100.00
21658;BME280;10990;48.174;9.782;2023-03-18T00:31:48;94225.19;;;6.53;100.00
21658;BME280;10990;48.174;9.782;2023-03-18T00:34:14;94248.69;;;6.55;100.00
21658;BME280;10990;48.174;9.782;2023-03-18T00:36:41;94284.03;;;6.68;100.00
21658;BME280;10990;48.174;9.782;2023-03-18T00:39:10;94316.56;;;6.67;100.00
21658;BME280;10990;48.174;9.782;2023-03-18T00:41:37;94327.91;;;6.76;100.00
21658;BME280;10990;48.174;9.782;2023-03-18T00:44:06;94363.69;;;6.77;100.00
21658;BME280;10990;48.174;9.782;2023-03-18T00:46:35;94378.47;;;6.78;100.00
21658;BME280;10990;48.174;9.782;2023-03-18T00:49:04;94390.78;;;6.78;100.00
21658;BME280;10990;48.174;9.782;2023-03-18T00:51:33;94405.50;;;6.96;100.00
21658;BME280;10990;48.174;9.782;2023-03-18T00:54:03;94414.56;;;7.02;100.00
21658;BME280;10990;48.174;9.782;2023-03-18T00:56:33;94446.06;;;6.94;100.00
21658;BME280;10990;48.174;9.782;2023-03-18T00:59:00;94448.38;;;6.97;100.00
21658;BME280;10990;48.174;9.782;2023-03-18T01:01:29;94457.41;;;6.94;100.00
21658;BME280;10990;48.174;9.782;2023-03-18T01:03:58;94459.91;;;7.04;100.00
21658;BME280;10990;48.174;9.782;2023-03-18T01:06:31;94469.97;;;7.17;100.00
21658;BME280;10990;48.174;9.782;2023-03-18T01:08:58;94491.03;;;7.17;100.00
21658;BME280;10990;48.174;9.782;2023-03-18T01:11:26;94509.25;;;7.10;100.00
21658;BME280;10990;48.174;9.782;2023-03-18T01:13:53;94500.53;;;7.10;100.00
21658;BME280;10990;48.174;9.782;2023-03-18T01:16:20;94518.22;;;7.00;100.00
21658;BME280;10990;48.174;9.782;2023-03-18T01:18:48;94513.28;;;6.96;100.00
21658;BME280;10990;48.174;9.782;2023-03-18T01:21:17;94518.41;;;6.80;100.00
21658;BME280;10990;48.174;9.782;2023-03-18T01:23:52;94509.34;;;6.74;100.00
21658;BME280;10990;48.174;9.782;2023-03-18T01:26:19;94509.81;;;6.70;100.00
21658;BME280;10990;48.174;9.782;2023-03-18T01:28:46;94500.06;;;6.88;100.00
21658;BME280;10990;48.174;9.782;2023-03-18T01:31:12;94512.41;;;6.88;100.00
21658;BME280;10990;48.174;9.782;2023-03-18T01:33:41;94513.34;;;6.87;100.00
21658;BME280;10990;48.174;9.782;2023-03-18T01:36:10;94523.41;;;6.91;100.00
21658;BME280;10990;48.174;9.782;2023-03-18T01:38:37;94525.59;;;6.96;100.00
21658;BME280;10990;48.174;9.782;2023-03-18T01:41:11;94532.28;;;6.90;100.00
21658;BME280;10990;48.174;9.782;2023-03-18T01:43:40;94535.13;;;6.97;100.00
21658;BME280;10990;48.174;9.782;2023-03-18T01:46:32;94533.38;;;6.80;100.00
21658;BME280;10990;48.174;9.782;2023-03-18T01:49:00;94533.88;;;6.83;100.00
21658;BME280;10990;48.174;9.782;2023-03-18T01:51:29;94544.03;;;6.78;100.00
21658;BME280;10990;48.174;9.782;2023-03-18T01:53:59;94537.19;;;6.59;100.00
21658;BME280;10990;48.174;9.782;2023-03-18T01:56:28;94528.06;;;6.71;100.00
21658;BME280;10990;48.174;9.782;2023-03-18T01:58:57;94529.19;;;6.69;100.00
21658;BME280;10990;48.174;9.782;2023-03-18T02:01:27;94522.69;;;6.55;100.00
21658;BME280;10990;48.174;9.782;2023-03-18T02:03:59;94515.28;;;6.50;100.00
21658;BME280;10990;48.174;9.782;2023-03-18T02:06:27;94508.28;;;6.41;100.00
21658;BME280;10990;48.174;9.782;2023-03-18T02:09:00;94495.28;;;6.58;100.00
21658;BME280;10990;48.174;9.782;2023-03-18T02:11:30;94504.28;;;6.55;100.00
21658;BME280;10990;48.174;9.782;2023-03-18T02:14:00;94509.41;;;6.57;100.00
21658;BME280;10990;48.174;9.782;2023-03-18T02:16:32;94507.59;;;6.57;100.00
21658;BME280;10990;48.174;9.782;2023-03-18T02:19:05;94500.97;;;6.53;100.00
21658;BME280;10990;48.174;9.782;2023-03-18T02:21:42;94499.28;;;6.62;100.00
21658;BME280;10990;48.174;9.782;2023-03-18T02:24:30;94508.66;;;6.46;100.00
21658;BME280;10990;48.174;9.782;2023-03-18T02:29:41;94487.75;;;6.37;100.00
21658;BME280;10990;48.174;9.782;2023-03-18T02:32:15;94479.72;;;6.38;100.00
21658;BME280;10990;48.174;9.782;2023-03-18T02:34:44;94474.78;;;6.35;100.00
21658;BME280;10990;48.174;9.782;2023-03-18T02:37:11;94482.97;;;6.32;100.00
21658;BME280;10990;48.174;9.782;2023-03-18T02:39:40;94483.41;;;6.27;100.00
21658;BME280;10990;48.174;9.782;2023-03-18T02:42:09;94492.47;;;6.33;100.00
21658;BME280;10990;48.174;9.782;2023-03-18T02:44:41;94509.16;;;6.50;100.00
21658;BME280;10990;48.174;9.782;2023-03-18T02:47:35;94523.66;;;6.54;100.00
21658;BME280;10990;48.174;9.782;2023-03-18T02:50:04;94545.88;;;6.60;100.00
21658;BME280;10990;48.174;9.782;2023-03-18T02:52:32;94550.97;;;6.61;100.00
21658;BME280;10990;48.174;9.782;2023-03-18T02:54:59;94561.41;;;6.71;100.00
21658;BME280;10990;48.174;9.782;2023-03-18T02:57:27;94593.06;;;6.87;100.00
21658;BME280;10990;48.174;9.782;2023-03-18T02:59:56;94624.41;;;6.89;100.00
21658;BME280;10990;48.174;9.782;2023-03-18T03:02:23;94648.38;;;6.86;100.00
21658;BME280;10990;48.174;9.782;2023-03-18T03:04:50;94661.97;;;6.81;100.00
21658;BME280;10990;48.174;9.782;2023-03-18T03:07:18;94670.59;;;6.91;100.00
21658;BME280;10990;48.174;9.782;2023-03-18T03:09:49;94696.44;;;6.96;100.00
21658;BME280;10990;48.174;9.782;2023-03-18T03:12:17;94720.56;;;6.73;100.00
21658;BME280;10990;48.174;9.782;2023-03-18T03:14:50;94702.91;;;6.66;100.00
21658;BME280;10990;48.174;9.782;2023-03-18T03:17:20;94698.16;;;6.69;100.00
21658;BME280;10990;48.174;9.782;2023-03-18T03:19:49;94699.88;;;6.61;100.00
21658;BME280;10990;48.174;9.782;2023-03-18T03:22:16;94689.59;;;6.49;100.00
21658;BME280;10990;48.174;9.782;2023-03-18T03:24:45;94686.56;;;6.44;100.00
21658;BME280;10990;48.174;9.782;2023-03-18T03:27:13;94681.88;;;6.48;100.00
21658;BME280;10990;48.174;9.782;2023-03-18T03:29:40;94680.81;;;6.59;100.00
21658;BME280;10990;48.174;9.782;2023-03-18T03:32:06;94687.44;;;6.63;100.00
21658;BME280;10990;48.174;9.782;2023-03-18T03:34:35;94694.41;;;6.54;100.00
21658;BME280;10990;48.174;9.782;2023-03-18T03:37:02;94695.91;;;6.57;100.00
21658;BME280;10990;48.174;9.782;2023-03-18T03:39:29;94708.97;;;6.48;100.00
21658;BME280;10990;48.174;9.782;2023-03-18T03:41:56;94702.72;;;6.49;100.00
21658;BME280;10990;48.174;9.782;2023-03-18T03:44:22;94709.13;;;6.65;100.00
21658;BME280;10990;48.174;9.782;2023-03-18T03:46:50;94740.44;;;6.76;100.00
21658;BME280;10990;48.174;9.782;2023-03-18T03:49:17;94760.63;;;6.76;100.00
21658;BME280;10990;48.174;9.782;2023-03-18T03:51:45;94771.53;;;6.81;100.00
21658;BME280;10990;48.174;9.782;2023-03-18T03:54:13;94771.91;;;6.68;100.00
21658;BME280;10990;48.174;9.782;2023-03-18T03:56:41;94775.78;;;6.64;100.00
21658;BME280;10990;48.174;9.782;2023-03-18T03:59:08;94774.81;;;6.65;100.00
21658;BME280;10990;48.174;9.782;2023-03-18T04:02:03;94763.41;;;6.56;100.00
21658;BME280;10990;48.174;9.782;2023-03-18T04:04:31;94770.72;;;6.53;100.00
21658;BME280;10990;48.174;9.782;2023-03-18T04:06:59;94764.84;;;6.41;100.00
21658;BME280;10990;48.174;9.782;2023-03-18T04:09:28;94762.13;;;6.33;100.00
21658;BME280;10990;48.174;9.782;2023-03-18T04:11:54;94755.66;;;6.27;100.00
21658;BME280;10990;48.174;9.782;2023-03-18T04:14:22;94735.97;;;6.41;100.00
21658;BME280;10990;48.174;9.782;2023-03-18T04:16:49;94736.84;;;6.32;100.00
21658;BME280;10990;48.174;9.782;2023-03-18T04:19:15;94733.56;;;6.47;100.00
21658;BME280;10990;48.174;9.782;2023-03-18T04:21:43;94744.53;;;6.61;100.00
21658;BME280;10990;48.174;9.782;2023-03-18T04:24:12;94764.84;;;6.41;100.00
21658;BME280;10990;48.174;9.782;2023-03-18T04:26:39;94753.34;;;6.42;100.00
21658;BME280;10990;48.174;9.782;2023-03-18T04:29:07;94749.88;;;6.23;100.00
21658;BME280;10990;48.174;9.782;2023-03-18T04:31:34;94721.38;;;6.28;100.00
21658;BME280;10990;48.174;9.782;2023-03-18T04:34:01;94706.97;;;6.05;100.00
21658;BME280;10990;48.174;9.782;2023-03-18T04:36:29;94684.81;;;6.17;100.00
21658;BME280;10990;48.174;9.782;2023-03-18T04:38:55;94684.81;;;6.17;100.00
21658;BME280;10990;48.174;9.782;2023-03-18T04:41:25;94675.25;;;6.26;100.00
21658;BME280;10990;48.174;9.782;2023-03-18T04:43:54;94683.81;;;6.00;100.00
21658;BME280;10990;48.174;9.782;2023-03-18T04:46:26;94678.78;;;5.70;100.00
21658;BME280;10990;48.174;9.782;2023-03-18T04:48:55;94655.88;;;5.25;100.00
21658;BME280;10990;48.174;9.782;2023-03-18T04:51:22;94622.78;;;5.24;100.00
21658;BME280;10990;48.174;9.782;2023-03-18T04:53:49;94590.94;;;5.19;100.00
21658;BME280;10990;48.174;9.782;2023-03-18T04:56:16;94569.38;;;5.25;100.00
21658;BME280;10990;48.174;9.782;2023-03-18T04:58:50;94542.41;;;5.42;100.00
21658;BME280;10990;48.174;9.782;2023-03-18T05:01:21;94534.63;;;5.50;100.00
21658;BME280;10990;48.174;9.782;2023-03-18T05:03:49;94526.66;;;5.42;100.00
21658;BME280;10990;48.174;9.782;2023-03-18T05:06:20;94513.56;;;5.42;100.00
21658;BME280;10990;48.174;9.782;2023-03-18T05:08:53;94511.06;;;5.40;100.00
21658;BME280;10990;48.174;9.782;2023-03-18T05:11:23;94502.84;;;5.53;100.00
21658;BME280;10990;48.174;9.782;2023-03-18T05:13:52;94501.34;;;5.51;100.00
21658;BME280;10990;48.174;9.782;2023-03-18T05:16:19;94503.97;;;5.51;100.00
21658;BME280;10990;48.174;9.782;2023-03-18T05:18:47;94497.53;;;5.45;100.00
21658;BME280;10990;48.174;9.782;2023-03-18T05:21:15;94501.72;;;5.38;100.00
21658;BME280;10990;48.174;9.782;2023-03-18T05:23:41;94499.94;;;5.29;100.00
21658;BME280;10990;48.174;9.782;2023-03-18T05:26:08;94486.25;;;5.35;100.00
21658;BME280;10990;48.174;9.782;2023-03-18T05:28:37;94492.09;;;5.29;100.00
21658;BME280;10990;48.174;9.782;2023-03-18T05:31:17;94480.06;;;5.36;100.00
21658;BME280;10990;48.174;9.782;2023-03-18T05:33:44;94478.88;;;5.48;100.00
21658;BME280;10990;48.174;9.782;2023-03-18T05:36:12;94484.19;;;5.38;100.00
21658;BME280;10990;48.174;9.782;2023-03-18T05:38:51;94479.13;;;5.27;100.00
21658;BME280;10990;48.174;9.782;2023-03-18T05:41:18;94469.41;;;5.37;100.00
21658;BME280;10990;48.174;9.782;2023-03-18T05:43:45;94472.81;;;5.48;100.00
21658;BME280;10990;48.174;9.782;2023-03-18T05:46:13;94482.91;;;5.43;100.00
21658;BME280;10990;48.174;9.782;2023-03-18T05:48:53;94478.81;;;5.12;100.00
21658;BME280;10990;48.174;9.782;2023-03-18T05:51:24;94467.91;;;5.35;100.00
21658;BME280;10990;48.174;9.782;2023-03-18T05:53:51;94460.81;;;5.45;100.00
21658;BME280;10990;48.174;9.782;2023-03-18T05:56:25;94468.00;;;5.43;100.00
21658;BME280;10990;48.174;9.782;2023-03-18T05:58:56;94469.28;;;5.39;100.00
21658;BME280;10990;48.174;9.782;2023-03-18T06:01:38;94463.41;;;5.27;100.00
21658;BME280;10990;48.174;9.782;2023-03-18T06:04:07;94469.59;;;5.26;100.00
21658;BME280;10990;48.174;9.782;2023-03-18T06:06:35;94452.94;;;5.45;100.00
21658;BME280;10990;48.174;9.782;2023-03-18T06:09:05;94457.94;;;5.66;100.00
21658;BME280;10990;48.174;9.782;2023-03-18T06:11:32;94463.69;;;5.70;100.00
21658;BME280;10990;48.174;9.782;2023-03-18T06:13:59;94473.97;;;5.81;100.00
21658;BME280;10990;48.174;9.782;2023-03-18T06:16:26;94487.13;;;5.71;100.00
21658;BME280;10990;48.174;9.782;2023-03-18T06:18:54;94482.56;;;5.73;100.00
21658;BME280;10990;48.174;9.782;2023-03-18T06:21:22;94488.41;;;5.85;100.00
21658;BME280;10990;48.174;9.782;2023-03-18T06:23:49;94496.84;;;5.89;100.00
21658;BME280;10990;48.174;9.782;2023-03-18T06:26:16;94497.22;;;5.94;100.00
21658;BME280;10990;48.174;9.782;2023-03-18T06:28:46;94512.53;;;5.98;100.00
21658;BME280;10990;48.174;9.782;2023-03-18T06:31:15;94520.53;;;5.97;100.00
21658;BME280;10990;48.174;9.782;2023-03-18T06:33:42;94519.78;;;6.04;100.00
21658;BME280;10990;48.174;9.782;2023-03-18T06:36:10;94524.97;;;5.96;100.00
21658;BME280;10990;48.174;9.782;2023-03-18T06:38:44;94523.09;;;6.24;100.00
21658;BME280;10990;48.174;9.782;2023-03-18T06:41:11;94529.72;;;6.28;100.00
21658;BME280;10990;48.174;9.782;2023-03-18T06:43:49;94531.94;;;6.41;100.00
21658;BME280;10990;48.174;9.782;2023-03-18T06:46:18;94542.44;;;6.41;100.00
21658;BME280;10990;48.174;9.782;2023-03-18T06:48:45;94550.47;;;6.40;100.00
21658;BME280;10990;48.174;9.782;2023-03-18T06:51:19;94549.03;;;6.27;100.00
21658;BME280;10990;48.174;9.782;2023-03-18T06:53:47;94526.56;;;6.69;100.00
21658;BME280;10990;48.174;9.782;2023-03-18T06:56:14;94529.63;;;6.82;100.00
21658;BME280;10990;48.174;9.782;2023-03-18T06:59:08;94541.59;;;7.11;100.00
21658;BME280;10990;48.174;9.782;2023-03-18T07:01:36;94549.03;;;7.50;100.00
21658;BME280;10990;48.174;9.782;2023-03-18T07:04:03;94579.50;;;8.19;100.00
21658;BME280;10990;48.174;9.782;2023-03-18T07:06:32;94623.28;;;8.87;100.00
21658;BME280;10990;48.174;9.782;2023-03-18T07:09:00;94704.69;;;9.23;100.00
21658;BME280;10990;48.174;9.782;2023-03-18T07:11:28;94773.16;;;9.74;100.00
21658;BME280;10990;48.174;9.782;2023-03-18T07:13:56;94829.59;;;9.97;100.00
21658;BME280;10990;48.174;9.782;2023-03-18T07:16:30;94884.84;;;10.72;100.00
21658;BME280;10990;48.174;9.782;2023-03-18T07:18:57;94967.22;;;11.17;100.00
21658;BME280;10990;48.174;9.782;2023-03-18T07:21:24;95035.06;;;11.18;100.00
21658;BME280;10990;48.174;9.782;2023-03-18T07:23:52;95087.81;;;11.28;100.00
21658;BME280;10990;48.174;9.782;2023-03-18T07:26:21;95148.28;;;11.80;100.00
21658;BME280;10990;48.174;9.782;2023-03-18T07:28:48;95182.09;;;11.61;100.00
21658;BME280;10990;48.174;9.782;2023-03-18T07:31:16;95219.50;;;11.75;100.00
21658;BME280;10990;48.174;9.782;2023-03-18T07:33:43;95243.22;;;12.40;100.00
21658;BME280;10990;48.174;9.782;2023-03-18T07:36:10;95288.78;;;12.52;100.00
21658;BME280;10990;48.174;9.782;2023-03-18T07:38:37;95280.16;;;12.50;100.00
21658;BME280;10990;48.174;9.782;2023-03-18T07:41:05;95290.78;;;12.89;100.00
21658;BME280;10990;48.174;9.782;2023-03-18T07:43:33;95339.94;;;13.56;100.00
21658;BME280;10990;48.174;9.782;2023-03-18T07:46:01;95376.16;;;14.03;100.00
21658;BME280;10990;48.174;9.782;2023-03-18T07:48:28;95412.44;;;14.94;100.00
21658;BME280;10990;48.174;9.782;2023-03-18T07:50:56;95457.13;;;15.22;100.00
21658;BME280;10990;48.174;9.782;2023-03-18T07:53:23;95479.97;;;16.05;100.00
21658;BME280;10990;48.174;9.782;2023-03-18T07:55:50;95505.66;;;16.28;100.00
21658;BME280;10990;48.174;9.782;2023-03-18T07:58:17;95520.69;;;16.14;100.00
21658;BME280;10990;48.174;9.782;2023-03-18T08:00:45;95527.22;;;16.69;100.00
21658;BME280;10990;48.174;9.782;2023-03-18T08:03:13;95528.81;;;16.78;100.00
21658;BME280;10990;48.174;9.782;2023-03-18T08:05:41;95534.00;;;16.87;100.00
21658;BME280;10990;48.174;9.782;2023-03-18T08:08:07;95541.84;;;16.16;100.00
21658;BME280;10990;48.174;9.782;2023-03-18T08:10:34;95541.78;;;16.82;100.00
21658;BME280;10990;48.174;9.782;2023-03-18T08:13:01;95541.50;;;16.76;100.00
21658;BME280;10990;48.174;9.782;2023-03-18T08:15:28;95541.81;;;16.88;100.00
21658;BME280;10990;48.174;9.782;2023-03-18T08:17:57;95543.59;;;18.28;100.00
21658;BME280;10990;48.174;9.782;2023-03-18T08:20:24;95551.13;;;18.11;100.00
21658;BME280;10990;48.174;9.782;2023-03-18T08:22:51;95544.66;;;18.41;100.00
21658;BME280;10990;48.174;9.782;2023-03-18T08:25:18;95556.38;;;16.86;100.00
21658;BME280;10990;48.174;9.782;2023-03-18T08:27:47;95557.28;;;16.93;100.00
21658;BME280;10990;48.174;9.782;2023-03-18T08:30:14;95549.78;;;17.59;100.00
21658;BME280;10990;48.174;9.782;2023-03-18T08:32:41;95553.50;;;17.93;100.00
21658;BME280;10990;48.174;9.782;2023-03-18T08:35:09;95553.38;;;18.63;100.00
21658;BME280;10990;48.174;9.782;2023-03-18T08:37:37;95559.69;;;17.94;100.00
21658;BME280;10990;48.174;9.782;2023-03-18T08:40:05;95556.13;;;18.89;100.00
21658;BME280;10990;48.174;9.782;2023-03-18T08:42:34;95556.97;;;18.96;100.00
21658;BME280;10990;48.174;9.782;2023-03-18T08:45:01;95555.34;;;19.48;100.00
21658;BME280;10990;48.174;9.782;2023-03-18T08:47:29;95546.66;;;19.60;100.00
21658;BME280;10990;48.174;9.782;2023-03-18T08:49:56;95549.75;;;19.30;100.00
21658;BME280;10990;48.174;9.782;2023-03-18T08:52:24;95549.00;;;18.48;100.00
21658;BME280;10990;48.174;9.782;2023-03-18T08:54:51;95549.97;;;19.09;100.00
21658;BME280;10990;48.174;9.782;2023-03-18T08:57:17;95548.75;;;19.38;100.00
21658;BME280;10990;48.174;9.782;2023-03-18T08:59:44;95536.00;;;20.25;100.00
21658;BME280;10990;48.174;9.782;2023-03-18T09:02:13;95534.00;;;20.00;100.00
21658;BME280;10990;48.174;9.782;2023-03-18T09:04:41;95526.56;;;20.54;99.05
21658;BME280;10990;48.174;9.782;2023-03-18T09:07:08;95529.06;;;20.55;93.00
21658;BME280;10990;48.174;9.782;2023-03-18T09:09:36;95532.78;;;20.48;97.50
21658;BME280;10990;48.174;9.782;2023-03-18T09:12:04;95526.50;;;20.99;93.56
21658;BME280;10990;48.174;9.782;2023-03-18T09:14:31;95521.94;;;20.68;98.85
21658;BME280;10990;48.174;9.782;2023-03-18T09:16:58;95528.13;;;21.32;95.11
21658;BME280;10990;48.174;9.782;2023-03-18T09:19:25;95526.81;;;20.84;96.26
21658;BME280;10990;48.174;9.782;2023-03-18T09:21:52;95506.66;;;21.50;91.65
21658;BME280;10990;48.174;9.782;2023-03-18T09:24:19;95506.38;;;21.95;85.11
21658;BME280;10990;48.174;9.782;2023-03-18T09:26:48;95514.81;;;21.12;81.53
21658;BME280;10990;48.174;9.782;2023-03-18T09:29:15;95504.16;;;22.10;86.61
21658;BME280;10990;48.174;9.782;2023-03-18T09:31:41;95501.16;;;22.67;75.80
21658;BME280;10990;48.174;9.782;2023-03-18T09:34:08;95500.66;;;22.28;76.06
21658;BME280;10990;48.174;9.782;2023-03-18T09:36:37;95509.78;;;21.47;71.50
21658;BME280;10990;48.174;9.782;2023-03-18T09:39:05;95500.88;;;22.57;60.87
21658;BME280;10990;48.174;9.782;2023-03-18T09:41:42;95494.75;;;22.80;54.46
21658;BME280;10990;48.174;9.782;2023-03-18T09:44:21;95483.53;;;22.95;53.52
21658;BME280;10990;48.174;9.782;2023-03-18T09:47:05;95483.03;;;22.86;53.97
21658;BME280;10990;48.174;9.782;2023-03-18T09:49:56;95479.75;;;22.84;53.22
21658;BME280;10990;48.174;9.782;2023-03-18T09:52:30;95481.75;;;22.89;56.33
21658;BME280;10990;48.174;9.782;2023-03-18T09:55:01;95489.88;;;21.91;49.60
21658;BME280;10990;48.174;9.782;2023-03-18T09:57:33;95484.47;;;22.28;46.27
21658;BME280;10990;48.174;9.782;2023-03-18T10:00:05;95485.97;;;21.87;40.41
21658;BME280;10990;48.174;9.782;2023-03-18T10:02:39;95478.47;;;22.87;40.53
21658;BME280;10990;48.174;9.782;2023-03-18T10:05:11;95480.50;;;23.03;40.42
21658;BME280;10990;48.174;9.782;2023-03-18T10:07:41;95469.03;;;23.08;39.58
21658;BME280;10990;48.174;9.782;2023-03-18T10:10:15;95473.06;;;23.40;40.12
21658;BME280;10990;48.174;9.782;2023-03-18T10:12:49;95483.47;;;22.41;40.69
21658;BME280;10990;48.174;9.782;2023-03-18T10:15:21;95469.66;;;23.21;42.70
21658;BME280;10990;48.174;9.782;2023-03-18T10:17:53;95463.16;;;24.05;40.37
21658;BME280;10990;48.174;9.782;2023-03-18T10:20:27;95473.88;;;22.75;40.46
21658;BME280;10990;48.174;9.782;2023-03-18T10:23:09;95483.72;;;22.70;42.33
21658;BME280;10990;48.174;9.782;2023-03-18T10:25:42;95484.63;;;21.97;47.82
21658;BME280;10990;48.174;9.782;2023-03-18T10:31:17;95481.25;;;23.22;47.12
21658;BME280;10990;48.174;9.782;2023-03-18T10:33:56;95458.34;;;24.47;45.43
21658;BME280;10990;48.174;9.782;2023-03-18T10:36:26;95467.31;;;23.60;44.13
21658;BME280;10990;48.174;9.782;2023-03-18T10:38:56;95454.25;;;24.45;43.13
21658;BME280;10990;48.174;9.782;2023-03-18T10:41:29;95461.84;;;24.07;43.97
21658;BME280;10990;48.174;9.782;2023-03-18T10:43:57;95462.53;;;24.55;43.08
21658;BME280;10990;48.174;9.782;2023-03-18T10:46:29;95453.91;;;24.87;41.70
21658;BME280;10990;48.174;9.782;2023-03-18T10:48:59;95462.84;;;23.54;41.64
21658;BME280;10990;48.174;9.782;2023-03-18T10:51:29;95462.59;;;23.79;43.92
21658;BME280;10990;48.174;9.782;2023-03-18T10:54:03;95444.28;;;24.62;42.90
21658;BME280;10990;48.174;9.782;2023-03-18T10:56:35;95441.56;;;24.62;42.08
21658;BME280;10990;48.174;9.782;2023-03-18T10:59:09;95450.16;;;24.19;43.02
21658;BME280;10990;48.174;9.782;2023-03-18T11:01:38;95453.34;;;23.63;44.50
21658;BME280;10990;48.174;9.782;2023-03-18T11:04:11;95456.75;;;22.70;45.45
21658;BME280;10990;48.174;9.782;2023-03-18T11:06:42;95452.97;;;23.01;48.48
21658;BME280;10990;48.174;9.782;2023-03-18T11:09:11;95462.69;;;22.30;47.06
21658;BME280;10990;48.174;9.782;2023-03-18T11:11:39;95467.25;;;21.12;49.61
21658;BME280;10990;48.174;9.782;2023-03-18T11:14:10;95466.22;;;20.11;52.14
21658;BME280;10990;48.174;9.782;2023-03-18T11:16:44;95475.28;;;19.39;57.46
21658;BME280;10990;48.174;9.782;2023-03-18T11:19:29;95483.72;;;18.56;59.36
21658;BME280;10990;48.174;9.782;2023-03-18T11:22:02;95478.84;;;18.05;65.18
21658;BME280;10990;48.174;9.782;2023-03-18T11:24:30;95477.41;;;18.15;68.75
21658;BME280;10990;48.174;9.782;2023-03-18T11:27:28;95468.91;;;18.80;67.14
21658;BME280;10990;48.174;9.782;2023-03-18T11:30:00;95466.63;;;18.70;65.18
21658;BME280;10990;48.174;9.782;2023-03-18T11:32:33;95465.91;;;18.15;66.18
21658;BME280;10990;48.174;9.782;2023-03-18T11:35:03;95462.97;;;18.85;65.37
21658;BME280;10990;48.174;9.782;2023-03-18T11:37:32;95458.63;;;19.03;64.75
21658;BME280;10990;48.174;9.782;2023-03-18T11:40:14;95448.47;;;18.52;63.82
21658;BME280;10990;48.174;9.782;2023-03-18T11:42:44;95461.22;;;18.37;68.78
21658;BME280;10990;48.174;9.782;2023-03-18T11:45:28;95440.88;;;19.29;67.42
21658;BME280;10990;48.174;9.782;2023-03-18T11:47:58;95430.72;;;19.38;69.08
21658;BME280;10990;48.174;9.782;2023-03-18T11:50:32;95447.63;;;18.45;68.85
21658;BME280;10990;48.174;9.782;2023-03-18T11:53:08;95441.63;;;17.75;73.46
21658;BME280;10990;48.174;9.782;2023-03-18T11:55:38;95433.59;;;18.17;74.05
21658;BME280;10990;48.174;9.782;2023-03-18T11:58:28;95434.78;;;18.07;74.36
21658;BME280;10990;48.174;9.782;2023-03-18T12:01:04;95425.16;;;18.26;73.64
21658;BME280;10990;48.174;9.782;2023-03-18T12:06:40;95412.63;;;18.53;75.36
21658;BME280;10990;48.174;9.782;2023-03-18T12:09:17;95409.16;;;18.79;76.38
21658;BME280;10990;48.174;9.782;2023-03-18T12:12:07;95409.53;;;19.03;76.78
21658;BME280;10990;48.174;9.782;2023-03-18T12:14:45;95398.41;;;18.86;77.68
21658;BME280;10990;48.174;9.782;2023-03-18T12:17:24;95402.72;;;18.54;77.23
21658;BME280;10990;48.174;9.782;2023-03-18T12:20:06;95400.50;;;18.84;77.37
21658;BME280;10990;48.174;9.782;2023-03-18T12:23:01;95388.28;;;19.21;80.82
21658;BME280;10990;48.174;9.782;2023-03-18T12:28:31;95400.19;;;18.06;85.94
21658;BME280;10990;48.174;9.782;2023-03-18T12:31:13;95404.50;;;17.94;86.20
21658;BME280;10990;48.174;9.782;2023-03-18T12:33:53;95387.63;;;18.06;82.09
21658;BME280;10990;48.174;9.782;2023-03-18T12:36:30;95393.75;;;17.80;84.59
21658;BME280;10990;48.174;9.782;2023-03-18T12:39:24;95402.69;;;18.21;86.07
21658;BME280;10990;48.174;9.782;2023-03-18T12:42:00;95396.72;;;18.19;83.85
21658;BME280;10990;48.174;9.782;2023-03-18T12:44:39;95396.25;;;17.88;83.68
21658;BME280;10990;48.174;9.782;2023-03-18T12:47:12;95390.03;;;17.81;85.16
21658;BME280;10990;48.174;9.782;2023-03-18T12:49:45;95391.16;;;17.59;84.18
21658;BME280;10990;48.174;9.782;2023-03-18T12:52:19;95388.47;;;17.52;83.62
21658;BME280;10990;48.174;9.782;2023-03-18T12:54:56;95374.50;;;18.45;85.34
21658;BME280;10990;48.174;9.782;2023-03-18T12:57:32;95363.97;;;19.03;80.04
21658;BME280;10990;48.174;9.782;2023-03-18T13:00:07;95364.84;;;18.77;80.21
21658;BME280;10990;48.174;9.782;2023-03-18T13:02:44;95372.75;;;17.90;81.04
21658;BME280;10990;48.174;9.782;2023-03-18T13:05:21;95369.69;;;17.80;82.41
21658;BME280;10990;48.174;9.782;2023-03-18T13:07:58;95370.53;;;18.01;82.93
21658;BME280;10990;48.174;9.782;2023-03-18T13:10:33;95362.59;;;17.66;83.08
21658;BME280;10990;48.174;9.782;2023-03-18T13:13:06;95364.59;;;18.32;81.18
21658;BME280;10990;48.174;9.782;2023-03-18T13:15:37;95371.16;;;18.09;85.93
21658;BME280;10990;48.174;9.782;2023-03-18T13:18:14;95364.59;;;18.38;85.24
21658;BME280;10990;48.174;9.782;2023-03-18T13:20:42;95362.09;;;18.04;84.01
21658;BME280;10990;48.174;9.782;2023-03-18T13:23:16;95373.47;;;18.32;82.99
21658;BME280;10990;48.174;9.782;2023-03-18T13:26:01;95368.09;;;18.52;85.21
21658;BME280;10990;48.174;9.782;2023-03-18T13:28:43;95355.75;;;18.78;92.49
21658;BME280;10990;48.174;9.782;2023-03-18T13:31:21;95356.13;;;18.02;86.61